Ship Status Report: callsign OS8154

sailwx.info

Track history (hours):
 
Tides and Currents Weather Stations Pressure Air Temp Water Temp Dewpoint Dewpoint Depression Visibility Wind Speed Wind Dir Waves Ship Positions

Callsign OS8154 (name unknown)

Last reported at 2016-Jul-31 00:00 UTC. Time now 2016-Jul-31 01:42 UTC.
Position N 60°36' W 064°42'.

Barometer 1016.8 mb
Air temperature 5.0 ° C

Date/timePositionNaut miles runAvg speedWind from/ knotsBaromVisibWave heightAir tempDewpointWater temp
2016-Jul-31 00:00N 60°36' W 064°42'0 0.0 1016.8 5.0
2016-Jul-30 23:00N 60°36' W 064°42'0 0.0 1016.5 4.8
2016-Jul-30 22:00N 60°36' W 064°42'0 0.0 1016.1 5.3
2016-Jul-30 21:00N 60°36' W 064°42'0 0.0 1016.2 5.5
2016-Jul-30 20:00N 60°36' W 064°42'0 0.0 1016.1 5.3
2016-Jul-30 17:00N 60°36' W 064°42'0 0.0 1016.1 6.0
2016-Jul-30 16:00N 60°36' W 064°42'0 0.0 1016.1 5.8
2016-Jul-30 14:00N 60°36' W 064°42'0 0.0 1016.0 5.0
2016-Jul-30 12:00N 60°36' W 064°42'0 0.0 1016.1 5.0
2016-Jul-30 11:00N 60°36' W 064°42'0 0.0 1015.9 4.5
2016-Jul-30 07:00N 60°36' W 064°42'0 0.0 1016.7 3.3
2016-Jul-30 06:00N 60°36' W 064°42'0 0.0 1017.1 3.5
2016-Jul-30 00:00N 60°36' W 064°42'0 0.0 1018.7 3.5
2016-Jul-29 23:00N 60°36' W 064°42'0 0.0 1018.8 3.3
2016-Jul-29 22:00N 60°36' W 064°42'0 0.0 1018.7 4.0
2016-Jul-29 20:00N 60°36' W 064°42'0 0.0 1019.0 3.8
2016-Jul-29 19:00N 60°36' W 064°42'0 0.0 1019.2 3.8
2016-Jul-29 18:00N 60°36' W 064°42'0 0.0 1019.3 3.8
2016-Jul-29 16:00N 60°36' W 064°42'0 0.0 1019.8 3.3
2016-Jul-29 15:00N 60°36' W 064°42'0 0.0 1020.3 2.5
2016-Jul-29 14:00N 60°36' W 064°42'0 0.0 1020.6 2.8
2016-Jul-29 13:00N 60°36' W 064°42'0 0.0 1020.4 2.5
2016-Jul-29 12:00N 60°36' W 064°42'0 0.0 1020.3 2.5
2016-Jul-29 10:00N 60°36' W 064°42'0 0.0 1019.9 2.8
2016-Jul-29 07:00N 60°36' W 064°42'0 0.0 1020.3 2.0
2016-Jul-29 06:00N 60°36' W 064°42'0 0.0 1020.9 2.3
2016-Jul-29 03:00N 60°36' W 064°42'0 0.0 1021.5 4.0
2016-Jul-29 01:00N 60°36' W 064°42'0 0.0 1021.8 4.5
2016-Jul-29 00:00N 60°36' W 064°42'0 0.0 1021.5 4.5
2016-Jul-28 23:00N 60°36' W 064°42'0 0.0 1021.2 5.0
2016-Jul-28 22:00N 60°36' W 064°42'0 0.0 1020.7 5.3
2016-Jul-28 20:00N 60°36' W 064°42'0 0.0 1020.1 5.0
2016-Jul-28 19:00N 60°36' W 064°42'0 0.0 1019.8 5.5
2016-Jul-28 18:00N 60°36' W 064°42'0 0.0 1019.8 5.5
2016-Jul-28 16:00N 60°36' W 064°42'0 0.0 1020.0 4.8
2016-Jul-28 15:00N 60°36' W 064°42'0 0.0 1019.9 5.3
2016-Jul-28 14:00N 60°36' W 064°42'0 0.0 1020.0 4.8
2016-Jul-28 13:00N 60°36' W 064°42'0 0.0 1020.2 3.5
2016-Jul-28 12:00N 60°36' W 064°42'0 0.0 1020.4 3.5
2016-Jul-28 11:00N 60°36' W 064°42'0 0.0 1020.4 4.0
2016-Jul-28 10:00N 60°36' W 064°42'0 0.0 1020.2 3.5
2016-Jul-28 09:00N 60°36' W 064°42'0 0.0 1020.0 3.3
2016-Jul-28 08:00N 60°36' W 064°42'0 0.0 1020.2 3.3
2016-Jul-28 06:00N 60°36' W 064°42'0 0.0 1019.9 4.0
2016-Jul-28 00:00N 60°36' W 064°42'0 0.0 1020.9 3.8
2016-Jul-27 22:00N 60°36' W 064°42'0 0.0 1020.8 2.5
2016-Jul-27 19:00N 60°36' W 064°42'0 0.0 1020.7 2.0
2016-Jul-27 18:00N 60°36' W 064°42'6 6.0 1021.0 3.5
2016-Jul-27 17:00N 60°30' W 064°42'8 8.4 1021.2 0.8
2016-Jul-27 16:00N 60°24' W 064°30'6 6.0 1021.7 2.3
2016-Jul-27 15:00N 60°18' W 064°30'0 0.0 1022.0 2.3
2016-Jul-27 14:00N 60°18' W 064°30'0 0.0 1022.1 4.0
2016-Jul-27 12:00N 60°18' W 064°30'0 0.0 1022.4 4.3
2016-Jul-27 11:00N 60°18' W 064°30'0 0.0 1022.3 2.8
2016-Jul-27 09:00N 60°18' W 064°30'0 0.0 1022.0 2.0
2016-Jul-27 07:00N 60°18' W 064°30'19 6.3 1021.5 2.5
2016-Jul-27 04:00N 60°12' W 063°54'7 6.7 1021.8 2.8
2016-Jul-27 03:00N 60°06' W 063°48'1212.4 1022.1 2.3
2016-Jul-27 02:00N 59°54' W 063°42'9 8.5 1022.1 2.5
2016-Jul-27 01:00N 59°48' W 063°30'7 6.7 1021.9 2.5
2016-Jul-27 00:00N 59°42' W 063°24'18 9.1 1021.9 3.8
2016-Jul-26 22:00N 59°24' W 063°18'7 6.7 1021.7 3.3
2016-Jul-26 21:00N 59°18' W 063°12'7 6.7 1021.7 3.0
2016-Jul-26 20:00N 59°12' W 063°18'20 9.8 1022.0 3.0
2016-Jul-26 18:00N 59°00' W 063°48'3 3.1 1019.9 9.3
2016-Jul-26 17:00N 59°00' W 063°54'0 0.0 1018.9 16.0
2016-Jul-26 15:00N 59°00' W 063°54'0 0.0 1019.4 16.8
2016-Jul-26 14:00N 59°00' W 063°54'0 0.0 1020.1 14.3
2016-Jul-26 13:00N 59°00' W 063°54'0 0.0 1020.7 13.8
2016-Jul-26 12:00N 59°00' W 063°54'0 0.0 1021.2 11.3
2016-Jul-26 11:00N 59°00' W 063°54'0 0.0 1021.2 10.8
2016-Jul-26 10:00N 59°00' W 063°54'0 0.0 1021.1 10.8
2016-Jul-26 09:00N 59°00' W 063°54'0 0.0 1020.8 11.5
2016-Jul-26 08:00N 59°00' W 063°54'0 0.0 1020.6 10.8
2016-Jul-26 06:00N 59°00' W 063°54'0 0.0 1020.6 12.5
2016-Jul-26 02:00N 59°00' W 063°54'0 0.0 1021.0 14.3
2016-Jul-26 00:00N 59°00' W 063°54'0 0.0 1020.6 15.5
2016-Jul-25 22:00N 59°00' W 063°54'19 6.5 1019.9 17.8
2016-Jul-25 19:00N 59°06' W 063°18'17 8.6 1021.9 5.0
2016-Jul-25 17:00N 58°54' W 062°54'7 6.8 1021.4 4.0
2016-Jul-25 16:00N 58°48' W 062°48'1212.0 1021.4 4.3
2016-Jul-25 15:00N 58°36' W 062°48'7 6.8 1021.2 3.3
2016-Jul-25 14:00N 58°30' W 062°54'6 3.1 1021.3 4.0
2016-Jul-25 12:00N 58°30' W 063°06'0 0.0 1021.1 4.5
2016-Jul-25 10:00N 58°30' W 063°06'0 0.0 1020.3 4.8
2016-Jul-25 08:00N 58°30' W 063°06'0 0.0 1019.2 4.8
2016-Jul-25 07:00N 58°30' W 063°06'0 0.0 1018.9 4.8
2016-Jul-25 01:00N 58°30' W 063°06'0 0.0 1017.9 7.3
2016-Jul-25 00:00N 58°30' W 063°06'0 0.0 1017.2 9.0
2016-Jul-24 23:00N 58°30' W 063°06'0 0.0 1016.8 8.5
2016-Jul-24 22:00N 58°30' W 063°06'0 0.0 1016.5 8.8
2016-Jul-24 21:00N 58°30' W 063°06'9 4.7 1016.2 8.8
2016-Jul-24 19:00N 58°30' W 063°24'0 0.0 1015.4 12.5
2016-Jul-24 18:00N 58°30' W 063°24'0 0.0 1014.8 12.8
2016-Jul-24 17:00N 58°30' W 063°24'0 0.0 1015.0 12.0
2016-Jul-24 15:00N 58°30' W 063°24'0 0.0 1014.8 13.0
2016-Jul-24 13:00N 58°30' W 063°24'0 0.0 1014.5 9.8
2016-Jul-24 11:00N 58°30' W 063°24'0 0.0 1014.3 8.5
2016-Jul-24 09:00N 58°30' W 063°24'0 0.0 1014.2 8.8
2016-Jul-24 08:00N 58°30' W 063°24'6 0.6 1014.2 8.8
2016-Jul-23 22:00N 58°30' W 063°12'9 9.4 1011.1 9.5
2016-Jul-23 21:00N 58°30' W 062°54'3 3.1 1010.6 10.0
2016-Jul-23 20:00N 58°30' W 062°48'0 0.0 1010.1 10.8
2016-Jul-23 19:00N 58°30' W 062°48'0 0.0 1009.8 10.5
2016-Jul-23 18:00N 58°30' W 062°48'9 2.9 1009.4 10.0
2016-Jul-23 15:00N 58°24' W 062°36'12 6.0 1009.9 5.8
2016-Jul-23 13:00N 58°12' W 062°36'0 0.0 1009.2 7.3
2016-Jul-23 11:00N 58°12' W 062°36'0 0.0 1008.6 8.0
2016-Jul-23 10:00N 58°12' W 062°36'0 0.0 1007.8 7.0
2016-Jul-23 09:00N 58°12' W 062°36'0 0.0 1007.9 7.3
2016-Jul-23 08:00N 58°12' W 062°36'0 0.0 1007.6 6.5
2016-Jul-23 07:00N 58°12' W 062°36'0 0.0 1007.1 6.8
2016-Jul-23 06:00N 58°12' W 062°36'0 0.0 1006.7 6.8
2016-Jul-23 05:00N 58°12' W 062°36'0 0.0 1006.3 6.5
2016-Jul-23 01:00N 58°12' W 062°36'0 0.0 1006.6 7.3
2016-Jul-22 23:00N 58°12' W 062°36'0 0.0 1006.0 8.3
2016-Jul-22 22:00N 58°12' W 062°36'0 0.0 1005.8 11.0
2016-Jul-22 21:00N 58°12' W 062°36'0 0.0 1005.7 9.5
2016-Jul-22 20:00N 58°12' W 062°36'0 0.0 1005.5 9.3
2016-Jul-22 19:00N 58°12' W 062°36'3 1.6 1005.5 8.0
2016-Jul-22 17:00N 58°12' W 062°30'9 8.7 1005.0 7.0
2016-Jul-22 16:00N 58°06' W 062°18'9 8.7 1005.2 7.3
2016-Jul-22 15:00N 58°00' W 062°06'14 6.8 1005.0 8.3
2016-Jul-22 13:00N 57°48' W 061°54'1212.0 1006.8 6.5
2016-Jul-22 12:00N 57°36' W 061°54'9 8.8 1006.4 6.3
2016-Jul-22 11:00N 57°30' W 062°06'0 0.0 1006.1 6.3
2016-Jul-22 10:00N 57°30' W 062°06'15 7.7 1006.0 6.0
2016-Jul-22 08:00N 57°18' W 061°48'9 8.8 1005.2 6.3
2016-Jul-22 07:00N 57°12' W 061°36'7 6.5 1005.4 7.0
2016-Jul-22 06:00N 57°12' W 061°24'1212.4 1005.7 5.0
2016-Jul-22 05:00N 57°00' W 061°18'6 6.0 1006.8 6.0
2016-Jul-22 04:00N 56°54' W 061°18'18 9.0 1007.2 5.5
2016-Jul-22 02:00N 56°36' W 061°18'7 6.9 1006.8 6.8
2016-Jul-22 01:00N 56°30' W 061°24'10 5.0 1006.2 7.0
2016-Jul-21 23:00N 56°30' W 061°42'0 0.0 1005.6 8.3
2016-Jul-21 22:00N 56°30' W 061°42'3 3.3 1005.6 11.0
2016-Jul-21 21:00N 56°30' W 061°36'7 6.9 1005.8 12.3
2016-Jul-21 20:00N 56°24' W 061°30'9 9.0 1006.2 7.3
2016-Jul-21 19:00N 56°18' W 061°18'3 1.1 1006.7 9.3
2016-Jul-21 16:00N 56°18' W 061°24'3 3.3 1007.5 9.8
2016-Jul-21 15:00N 56°18' W 061°18'1212.5 1008.1 8.0
2016-Jul-21 14:00N 56°06' W 061°12'6 6.0 1008.2 10.8
2016-Jul-21 13:00N 56°00' W 061°12'7 6.7 1008.5 10.5
2016-Jul-21 12:00N 56°00' W 061°00'0 0.0 1008.4 9.5
2016-Jul-21 10:00N 56°00' W 061°00'0 0.0 1008.8 8.5
2016-Jul-21 08:00N 56°00' W 061°00'0 0.0 1008.8 8.0
2016-Jul-21 07:00N 56°00' W 061°00'0 0.0 1008.5 8.0
2016-Jul-21 06:00N 56°00' W 061°00'0 0.0 1008.6 7.8
2016-Jul-21 00:00N 56°00' W 061°00'   1007.8 7.5
Track history (hours):
 
Tides and Currents Weather Stations Pressure Air Temp Water Temp Dewpoint Dewpoint Depression Visibility Wind Speed Wind Dir Waves Ship Positions

Callsign OS8154 (name unknown)

Last reported at 2016-Jul-31 00:00 UTC. Time now 2016-Jul-31 01:42 UTC.
Position N 60°36' W 064°42'.

Barometer 1016.8 mb
Air temperature 5.0 ° C

Date/timePositionNaut miles runAvg speedWind from/ knotsBaromVisibWave heightAir tempDewpointWater temp
2016-Jul-31 00:00N 60°36' W 064°42'0 0.0 1016.8 5.0
2016-Jul-30 23:00N 60°36' W 064°42'0 0.0 1016.5 4.8
2016-Jul-30 22:00N 60°36' W 064°42'0 0.0 1016.1 5.3
2016-Jul-30 21:00N 60°36' W 064°42'0 0.0 1016.2 5.5
2016-Jul-30 20:00N 60°36' W 064°42'0 0.0 1016.1 5.3
2016-Jul-30 17:00N 60°36' W 064°42'0 0.0 1016.1 6.0
2016-Jul-30 16:00N 60°36' W 064°42'0 0.0 1016.1 5.8
2016-Jul-30 14:00N 60°36' W 064°42'0 0.0 1016.0 5.0
2016-Jul-30 12:00N 60°36' W 064°42'0 0.0 1016.1 5.0
2016-Jul-30 11:00N 60°36' W 064°42'0 0.0 1015.9 4.5
2016-Jul-30 07:00N 60°36' W 064°42'0 0.0 1016.7 3.3
2016-Jul-30 06:00N 60°36' W 064°42'0 0.0 1017.1 3.5
2016-Jul-30 00:00N 60°36' W 064°42'0 0.0 1018.7 3.5
2016-Jul-29 23:00N 60°36' W 064°42'0 0.0 1018.8 3.3
2016-Jul-29 22:00N 60°36' W 064°42'0 0.0 1018.7 4.0
2016-Jul-29 20:00N 60°36' W 064°42'0 0.0 1019.0 3.8
2016-Jul-29 19:00N 60°36' W 064°42'0 0.0 1019.2 3.8
2016-Jul-29 18:00N 60°36' W 064°42'0 0.0 1019.3 3.8
2016-Jul-29 16:00N 60°36' W 064°42'0 0.0 1019.8 3.3
2016-Jul-29 15:00N 60°36' W 064°42'0 0.0 1020.3 2.5
2016-Jul-29 14:00N 60°36' W 064°42'0 0.0 1020.6 2.8
2016-Jul-29 13:00N 60°36' W 064°42'0 0.0 1020.4 2.5
2016-Jul-29 12:00N 60°36' W 064°42'0 0.0 1020.3 2.5
2016-Jul-29 10:00N 60°36' W 064°42'0 0.0 1019.9 2.8
2016-Jul-29 07:00N 60°36' W 064°42'0 0.0 1020.3 2.0
2016-Jul-29 06:00N 60°36' W 064°42'0 0.0 1020.9 2.3
2016-Jul-29 03:00N 60°36' W 064°42'0 0.0 1021.5 4.0
2016-Jul-29 01:00N 60°36' W 064°42'0 0.0 1021.8 4.5
2016-Jul-29 00:00N 60°36' W 064°42'0 0.0 1021.5 4.5
2016-Jul-28 23:00N 60°36' W 064°42'0 0.0 1021.2 5.0
2016-Jul-28 22:00N 60°36' W 064°42'0 0.0 1020.7 5.3
2016-Jul-28 20:00N 60°36' W 064°42'0 0.0 1020.1 5.0
2016-Jul-28 19:00N 60°36' W 064°42'0 0.0 1019.8 5.5
2016-Jul-28 18:00N 60°36' W 064°42'0 0.0 1019.8 5.5
2016-Jul-28 16:00N 60°36' W 064°42'0 0.0 1020.0 4.8
2016-Jul-28 15:00N 60°36' W 064°42'0 0.0 1019.9 5.3
2016-Jul-28 14:00N 60°36' W 064°42'0 0.0 1020.0 4.8
2016-Jul-28 13:00N 60°36' W 064°42'0 0.0 1020.2 3.5
2016-Jul-28 12:00N 60°36' W 064°42'0 0.0 1020.4 3.5
2016-Jul-28 11:00N 60°36' W 064°42'0 0.0 1020.4 4.0
2016-Jul-28 10:00N 60°36' W 064°42'0 0.0 1020.2 3.5
2016-Jul-28 09:00N 60°36' W 064°42'0 0.0 1020.0 3.3
2016-Jul-28 08:00N 60°36' W 064°42'0 0.0 1020.2 3.3
2016-Jul-28 06:00N 60°36' W 064°42'0 0.0 1019.9 4.0
2016-Jul-28 00:00N 60°36' W 064°42'0 0.0 1020.9 3.8
2016-Jul-27 22:00N 60°36' W 064°42'0 0.0 1020.8 2.5
2016-Jul-27 19:00N 60°36' W 064°42'0 0.0 1020.7 2.0
2016-Jul-27 18:00N 60°36' W 064°42'6 6.0 1021.0 3.5
2016-Jul-27 17:00N 60°30' W 064°42'8 8.4 1021.2 0.8
2016-Jul-27 16:00N 60°24' W 064°30'6 6.0 1021.7 2.3
2016-Jul-27 15:00N 60°18' W 064°30'0 0.0 1022.0 2.3
2016-Jul-27 14:00N 60°18' W 064°30'0 0.0 1022.1 4.0
2016-Jul-27 12:00N 60°18' W 064°30'0 0.0 1022.4 4.3
2016-Jul-27 11:00N 60°18' W 064°30'0 0.0 1022.3 2.8
2016-Jul-27 09:00N 60°18' W 064°30'0 0.0 1022.0 2.0
2016-Jul-27 07:00N 60°18' W 064°30'19 6.3 1021.5 2.5
2016-Jul-27 04:00N 60°12' W 063°54'7 6.7 1021.8 2.8
2016-Jul-27 03:00N 60°06' W 063°48'1212.4 1022.1 2.3
2016-Jul-27 02:00N 59°54' W 063°42'9 8.5 1022.1 2.5
2016-Jul-27 01:00N 59°48' W 063°30'7 6.7 1021.9 2.5
2016-Jul-27 00:00N 59°42' W 063°24'18 9.1 1021.9 3.8
2016-Jul-26 22:00N 59°24' W 063°18'7 6.7 1021.7 3.3
2016-Jul-26 21:00N 59°18' W 063°12'7 6.7 1021.7 3.0
2016-Jul-26 20:00N 59°12' W 063°18'20 9.8 1022.0 3.0
2016-Jul-26 18:00N 59°00' W 063°48'3 3.1 1019.9 9.3
2016-Jul-26 17:00N 59°00' W 063°54'0 0.0 1018.9 16.0
2016-Jul-26 15:00N 59°00' W 063°54'0 0.0 1019.4 16.8
2016-Jul-26 14:00N 59°00' W 063°54'0 0.0 1020.1 14.3
2016-Jul-26 13:00N 59°00' W 063°54'0 0.0 1020.7 13.8
2016-Jul-26 12:00N 59°00' W 063°54'0 0.0 1021.2 11.3
2016-Jul-26 11:00N 59°00' W 063°54'0 0.0 1021.2 10.8
2016-Jul-26 10:00N 59°00' W 063°54'0 0.0 1021.1 10.8
2016-Jul-26 09:00N 59°00' W 063°54'0 0.0 1020.8 11.5
2016-Jul-26 08:00N 59°00' W 063°54'0 0.0 1020.6 10.8
2016-Jul-26 06:00N 59°00' W 063°54'0 0.0 1020.6 12.5
2016-Jul-26 02:00N 59°00' W 063°54'0 0.0 1021.0 14.3
2016-Jul-26 00:00N 59°00' W 063°54'0 0.0 1020.6 15.5
2016-Jul-25 22:00N 59°00' W 063°54'19 6.5 1019.9 17.8
2016-Jul-25 19:00N 59°06' W 063°18'17 8.6 1021.9 5.0
2016-Jul-25 17:00N 58°54' W 062°54'7 6.8 1021.4 4.0
2016-Jul-25 16:00N 58°48' W 062°48'1212.0 1021.4 4.3
2016-Jul-25 15:00N 58°36' W 062°48'7 6.8 1021.2 3.3
2016-Jul-25 14:00N 58°30' W 062°54'6 3.1 1021.3 4.0
2016-Jul-25 12:00N 58°30' W 063°06'0 0.0 1021.1 4.5
2016-Jul-25 10:00N 58°30' W 063°06'0 0.0 1020.3 4.8
2016-Jul-25 08:00N 58°30' W 063°06'0 0.0 1019.2 4.8
2016-Jul-25 07:00N 58°30' W 063°06'0 0.0 1018.9 4.8
2016-Jul-25 01:00N 58°30' W 063°06'0 0.0 1017.9 7.3
2016-Jul-25 00:00N 58°30' W 063°06'0 0.0 1017.2 9.0
2016-Jul-24 23:00N 58°30' W 063°06'0 0.0 1016.8 8.5
2016-Jul-24 22:00N 58°30' W 063°06'0 0.0 1016.5 8.8
2016-Jul-24 21:00N 58°30' W 063°06'9 4.7 1016.2 8.8
2016-Jul-24 19:00N 58°30' W 063°24'0 0.0 1015.4 12.5
2016-Jul-24 18:00N 58°30' W 063°24'0 0.0 1014.8 12.8
2016-Jul-24 17:00N 58°30' W 063°24'0 0.0 1015.0 12.0
2016-Jul-24 15:00N 58°30' W 063°24'0 0.0 1014.8 13.0
2016-Jul-24 13:00N 58°30' W 063°24'0 0.0 1014.5 9.8
2016-Jul-24 11:00N 58°30' W 063°24'0 0.0 1014.3 8.5
2016-Jul-24 09:00N 58°30' W 063°24'0 0.0 1014.2 8.8
2016-Jul-24 08:00N 58°30' W 063°24'6 0.6 1014.2 8.8
2016-Jul-23 22:00N 58°30' W 063°12'9 9.4 1011.1 9.5
2016-Jul-23 21:00N 58°30' W 062°54'3 3.1 1010.6 10.0
2016-Jul-23 20:00N 58°30' W 062°48'0 0.0 1010.1 10.8
2016-Jul-23 19:00N 58°30' W 062°48'0 0.0 1009.8 10.5
2016-Jul-23 18:00N 58°30' W 062°48'9 2.9 1009.4 10.0
2016-Jul-23 15:00N 58°24' W 062°36'12 6.0 1009.9 5.8
2016-Jul-23 13:00N 58°12' W 062°36'0 0.0 1009.2 7.3
2016-Jul-23 11:00N 58°12' W 062°36'0 0.0 1008.6 8.0
2016-Jul-23 10:00N 58°12' W 062°36'0 0.0 1007.8 7.0
2016-Jul-23 09:00N 58°12' W 062°36'0 0.0 1007.9 7.3
2016-Jul-23 08:00N 58°12' W 062°36'0 0.0 1007.6 6.5
2016-Jul-23 07:00N 58°12' W 062°36'0 0.0 1007.1 6.8
2016-Jul-23 06:00N 58°12' W 062°36'0 0.0 1006.7 6.8
2016-Jul-23 05:00N 58°12' W 062°36'0 0.0 1006.3 6.5
2016-Jul-23 01:00N 58°12' W 062°36'0 0.0 1006.6 7.3
2016-Jul-22 23:00N 58°12' W 062°36'0 0.0 1006.0 8.3
2016-Jul-22 22:00N 58°12' W 062°36'0 0.0 1005.8 11.0
2016-Jul-22 21:00N 58°12' W 062°36'0 0.0 1005.7 9.5
2016-Jul-22 20:00N 58°12' W 062°36'0 0.0 1005.5 9.3
2016-Jul-22 19:00N 58°12' W 062°36'3 1.6 1005.5 8.0
2016-Jul-22 17:00N 58°12' W 062°30'9 8.7 1005.0 7.0
2016-Jul-22 16:00N 58°06' W 062°18'9 8.7 1005.2 7.3
2016-Jul-22 15:00N 58°00' W 062°06'14 6.8 1005.0 8.3
2016-Jul-22 13:00N 57°48' W 061°54'1212.0 1006.8 6.5
2016-Jul-22 12:00N 57°36' W 061°54'9 8.8 1006.4 6.3
2016-Jul-22 11:00N 57°30' W 062°06'0 0.0 1006.1 6.3
2016-Jul-22 10:00N 57°30' W 062°06'15 7.7 1006.0 6.0
2016-Jul-22 08:00N 57°18' W 061°48'9 8.8 1005.2 6.3
2016-Jul-22 07:00N 57°12' W 061°36'7 6.5 1005.4 7.0
2016-Jul-22 06:00N 57°12' W 061°24'1212.4 1005.7 5.0
2016-Jul-22 05:00N 57°00' W 061°18'6 6.0 1006.8 6.0
2016-Jul-22 04:00N 56°54' W 061°18'18 9.0 1007.2 5.5
2016-Jul-22 02:00N 56°36' W 061°18'7 6.9 1006.8 6.8
2016-Jul-22 01:00N 56°30' W 061°24'10 5.0 1006.2 7.0
2016-Jul-21 23:00N 56°30' W 061°42'0 0.0 1005.6 8.3
2016-Jul-21 22:00N 56°30' W 061°42'3 3.3 1005.6 11.0
2016-Jul-21 21:00N 56°30' W 061°36'7 6.9 1005.8 12.3
2016-Jul-21 20:00N 56°24' W 061°30'9 9.0 1006.2 7.3
2016-Jul-21 19:00N 56°18' W 061°18'3 1.1 1006.7 9.3
2016-Jul-21 16:00N 56°18' W 061°24'3 3.3 1007.5 9.8
2016-Jul-21 15:00N 56°18' W 061°18'1212.5 1008.1 8.0
2016-Jul-21 14:00N 56°06' W 061°12'6 6.0 1008.2 10.8
2016-Jul-21 13:00N 56°00' W 061°12'7 6.7 1008.5 10.5
2016-Jul-21 12:00N 56°00' W 061°00'0 0.0 1008.4 9.5
2016-Jul-21 10:00N 56°00' W 061°00'0 0.0 1008.8 8.5
2016-Jul-21 08:00N 56°00' W 061°00'0 0.0 1008.8 8.0
2016-Jul-21 07:00N 56°00' W 061°00'0 0.0 1008.5 8.0
2016-Jul-21 06:00N 56°00' W 061°00'0 0.0 1008.6 7.8
2016-Jul-21 00:00N 56°00' W 061°00'   1007.8 7.5

Dump ship's entire track history